Time;durP1;ratioP1;P1;durP2;ratioP2;P2;SDS_P1;SDS_P2;PMS_P1;PMS_P2;Temp;Humidity;BMP_temperature;BMP_pressure;BME280_temperature;BME280_humidity;BME280_pressure;Samples;Min_cycle;Max_cycle;Signal;HPM_P1;HPM_P2
2023/02/25 00:01:33;;;;;;;5.73;4.20;;;3.30;1.00;;;5.17;100.00;94410.72;4968749;28;20237;-68
2023/02/25 00:04:00;;;;;;;10.03;4.37;;;3.30;1.00;;;5.00;100.00;94415.38;4969308;28;20282;-68
2023/02/25 00:06:28;;;;;;;8.27;5.30;;;3.10;1.00;;;4.96;100.00;94410.84;4965107;28;20216;-67
2023/02/25 00:08:55;;;;;;;10.57;4.70;;;3.20;1.00;;;4.96;100.00;94401.06;4967179;28;20634;-68
2023/02/25 00:11:25;;;;;;;6.97;4.23;;;3.10;1.00;;;4.92;100.00;94399.22;4971666;28;20608;-68
2023/02/25 00:13:52;;;;;;;8.23;4.37;;;3.10;1.00;;;4.80;100.00;94415.22;4964059;28;20724;-68
2023/02/25 00:16:21;;;;;;;10.13;4.50;;;3.00;1.00;;;4.90;100.00;94409.22;4968343;28;20280;-68
2023/02/25 00:18:48;;;;;;;6.73;4.10;;;3.00;1.00;;;4.86;100.00;94422.13;4963620;28;20668;-68
2023/02/25 00:21:16;;;;;;;8.07;3.90;;;3.00;1.00;;;4.81;100.00;94426.56;4965043;28;20249;-68
2023/02/25 00:23:47;;;;;;;6.90;4.07;;;3.10;1.00;;;4.91;100.00;94430.09;4966725;28;20214;-68
2023/02/25 00:26:16;;;;;;;10.43;4.80;;;3.00;1.00;;;4.89;100.00;94432.19;4958832;28;20211;-67
2023/02/25 00:28:43;;;;;;;8.73;4.03;;;3.00;1.00;;;4.76;100.00;94434.44;4962389;28;20245;-68
2023/02/25 00:31:12;;;;;;;9.03;4.60;;;2.90;1.00;;;4.74;100.00;94426.81;4968345;28;20230;-68
2023/02/25 00:33:40;;;;;;;9.47;5.10;;;2.90;1.00;;;4.70;100.00;94417.78;4966694;28;20217;-67
2023/02/25 00:36:09;;;;;;;9.87;5.37;;;2.90;1.00;;;4.69;100.00;94412.75;4962249;28;20549;-68
2023/02/25 00:38:36;;;;;;;7.27;4.47;;;2.90;1.00;;;4.75;100.00;94407.25;4964906;28;20684;-67
2023/02/25 00:41:10;;;;;;;6.90;4.30;;;2.90;1.00;;;4.81;100.00;94413.34;4962050;28;21886;-68
2023/02/25 00:43:38;;;;;;;7.97;4.80;;;2.90;1.00;;;4.86;100.00;94416.03;4964527;28;20276;-68
2023/02/25 00:46:05;;;;;;;9.00;4.87;;;2.90;1.00;;;4.83;100.00;94422.63;4963234;28;20217;-68
2023/02/25 00:48:32;;;;;;;7.10;4.07;;;2.90;1.00;;;4.69;100.00;94416.19;4958225;28;20270;-68
2023/02/25 00:51:06;;;;;;;5.83;4.30;;;2.80;1.00;;;4.70;100.00;94425.69;4966731;28;20238;-68
2023/02/25 00:53:33;;;;;;;9.87;4.40;;;2.90;1.00;;;4.69;100.00;94425.94;4965536;28;20220;-67
2023/02/25 00:56:00;;;;;;;6.47;4.57;;;2.80;1.00;;;4.78;100.00;94422.59;4964419;28;20222;-68
2023/02/25 00:58:28;;;;;;;8.33;4.97;;;2.80;1.00;;;4.85;100.00;94419.72;4964882;28;20663;-68
2023/02/25 01:00:55;;;;;;;9.00;4.87;;;2.90;1.00;;;4.85;100.00;94417.09;4963880;28;20233;-67
2023/02/25 01:03:23;;;;;;;9.13;5.40;;;2.80;1.00;;;4.76;100.00;94415.97;4961445;28;20707;-68
2023/02/25 01:05:50;;;;;;;11.87;5.63;;;2.90;1.00;;;4.73;100.00;94413.84;4968521;28;20215;-68
2023/02/25 01:08:17;;;;;;;9.00;5.07;;;2.90;1.00;;;4.82;100.00;94410.47;4964838;28;20358;-67
2023/02/25 01:10:45;;;;;;;9.27;5.77;;;2.90;1.00;;;4.76;100.00;94406.22;4967905;28;20231;-68
2023/02/25 01:13:12;;;;;;;9.27;4.97;;;2.80;1.00;;;4.71;100.00;94402.72;4968923;28;20563;-67
2023/02/25 01:15:41;;;;;;;10.83;5.87;;;2.80;1.00;;;4.56;100.00;94423.72;4964007;28;20610;-68
2023/02/25 01:18:07;;;;;;;9.00;5.67;;;2.80;1.00;;;4.66;100.00;94444.91;4961223;28;20267;-67
2023/02/25 01:20:39;;;;;;;11.73;6.17;;;2.80;1.00;;;4.48;100.00;94456.63;4967140;28;20265;-68
2023/02/25 01:23:07;;;;;;;14.37;5.77;;;2.70;1.00;;;4.59;100.00;94450.44;4959500;28;20292;-68
2023/02/25 01:25:34;;;;;;;12.47;5.73;;;2.70;1.00;;;4.53;100.00;94453.25;4967862;28;20210;-67
2023/02/25 01:28:00;;;;;;;9.90;5.63;;;2.70;1.00;;;4.62;100.00;94455.19;4965203;28;20691;-68
2023/02/25 01:30:27;;;;;;;13.00;6.27;;;2.70;1.00;;;4.57;100.00;94449.88;4970028;28;20240;-68
2023/02/25 01:32:55;;;;;;;10.43;5.90;;;2.70;1.00;;;4.44;100.00;94466.13;4962439;28;20219;-68
2023/02/25 01:35:22;;;;;;;12.93;5.97;;;2.60;1.00;;;4.66;100.00;94445.72;4967546;28;20218;-67
2023/02/25 01:37:49;;;;;;;15.40;6.67;;;2.70;1.00;;;4.62;100.00;94438.56;4966200;28;20268;-68
2023/02/25 01:40:17;;;;;;;10.40;5.80;;;2.70;1.00;;;4.61;100.00;94434.31;4969348;28;20211;-68
2023/02/25 01:42:45;;;;;;;11.73;6.03;;;2.70;1.00;;;4.48;100.00;94430.25;4962681;28;20340;-67
2023/02/25 01:45:29;;;;;;;8.33;5.57;;;2.60;1.00;;;4.50;100.00;94433.44;4967893;28;20260;-68
2023/02/25 01:48:06;;;;;;;10.03;5.73;;;2.60;1.00;;;4.47;100.00;94438.44;4962407;28;20232;-68
2023/02/25 01:50:41;;;;;;;11.07;6.30;;;2.60;1.00;;;4.50;100.00;94427.34;4964512;28;20587;-67
2023/02/25 01:53:08;;;;;;;12.13;5.73;;;2.60;1.00;;;4.34;100.00;94442.28;4965900;28;20217;-68
2023/02/25 01:55:36;;;;;;;11.13;5.73;;;2.60;1.00;;;4.34;100.00;94452.00;4962502;28;20209;-68
2023/02/25 01:58:03;;;;;;;14.53;6.87;;;2.50;1.00;;;4.39;100.00;94462.63;4961232;28;21037;-68
2023/02/25 02:00:32;;;;;;;14.57;5.87;;;2.50;1.00;;;4.53;100.00;94448.75;4958921;28;20653;-68
2023/02/25 02:03:01;;;;;;;12.73;6.50;;;2.50;1.00;;;4.38;100.00;94450.47;4967139;28;20225;-67
2023/02/25 02:05:40;;;;;;;12.73;6.40;;;2.50;1.00;;;4.39;100.00;94454.72;4965086;28;20622;-68
2023/02/25 02:08:08;;;;;;;12.70;6.80;;;2.50;1.00;;;4.26;100.00;94453.25;4962271;28;20216;-67
2023/02/25 02:10:35;;;;;;;12.60;6.30;;;2.40;1.00;;;4.32;100.00;94462.03;4964315;28;20237;-68
2023/02/25 02:13:02;;;;;;;10.43;6.43;;;2.50;1.00;;;4.33;100.00;94469.72;4962689;28;20221;-68
2023/02/25 02:15:38;;;;;;;14.40;7.13;;;2.40;1.00;;;4.29;100.00;94471.25;4961682;28;20300;-68
2023/02/25 02:18:08;;;;;;;11.83;6.80;;;2.40;1.00;;;4.30;100.00;94475.47;4962745;28;20706;-68
2023/02/25 02:20:51;;;;;;;13.40;7.27;;;2.40;1.00;;;4.48;100.00;94474.34;4963013;28;20210;-68
2023/02/25 02:23:59;;;;;;;9.50;6.00;;;2.40;1.00;;;4.47;100.00;94462.97;4961956;28;20286;-68
2023/02/25 02:26:53;;;;;;;12.20;6.47;;;2.40;1.00;;;4.59;100.00;94468.09;4965658;28;20658;-68
2023/02/25 02:30:00;;;;;;;13.23;7.37;;;2.50;1.00;;;4.67;100.00;94470.31;4961730;28;20276;-67
2023/02/25 02:32:38;;;;;;;10.17;6.60;;;2.50;1.00;;;4.69;100.00;94455.00;4964381;28;20217;-68
2023/02/25 02:35:17;;;;;;;14.20;6.63;;;2.40;1.00;;;5.01;100.00;94459.22;4966061;28;20275;-68
2023/02/25 02:37:54;;;;;;;13.33;6.30;;;2.50;1.00;;;4.80;100.00;94464.59;4961044;28;20212;-67
2023/02/25 02:40:37;;;;;;;14.33;6.70;;;2.50;1.00;;;5.00;100.00;94467.41;4963970;28;20290;-68
2023/02/25 02:43:20;;;;;;;13.83;6.40;;;2.50;1.00;;;4.96;100.00;94459.19;4968798;28;20276;-68
2023/02/25 02:45:55;;;;;;;11.83;6.00;;;2.40;1.00;;;5.13;100.00;94470.41;4971715;28;20213;-68
2023/02/25 02:48:28;;;;;;;11.73;6.30;;;2.40;1.00;;;5.20;100.00;94471.00;4960886;28;20335;-67
2023/02/25 02:51:00;;;;;;;11.57;6.27;;;2.40;1.00;;;4.70;100.00;94478.50;4968985;28;20225;-68
2023/02/25 02:53:33;;;;;;;11.70;6.73;;;2.40;1.00;;;4.76;100.00;94477.50;4962332;28;20468;-68
2023/02/25 02:56:03;;;;;;;10.73;6.07;;;2.40;1.00;;;4.64;100.00;94495.34;4970762;28;20217;-67
2023/02/25 02:58:36;;;;;;;12.60;6.30;;;2.40;1.00;;;4.16;100.00;94484.81;4965625;28;20273;-68
2023/02/25 03:01:07;;;;;;;12.33;6.30;;;2.40;1.00;;;4.32;100.00;94483.91;4972243;28;20322;-68
2023/02/25 03:03:40;;;;;;;8.80;5.97;;;2.40;1.00;;;4.51;100.00;94487.81;4965673;28;20265;-67
2023/02/25 03:06:11;;;;;;;11.00;6.37;;;2.40;1.00;;;4.55;100.00;94478.38;4966602;28;20220;-68
2023/02/25 03:08:44;;;;;;;14.00;6.20;;;2.40;1.00;;;4.60;100.00;94485.53;4965869;28;20212;-68
2023/02/25 03:11:11;;;;;;;11.10;5.60;;;2.30;1.00;;;4.71;100.00;94490.66;4963262;28;20233;-67
2023/02/25 03:13:38;;;;;;;9.27;5.23;;;2.40;1.00;;;4.65;100.00;94493.50;4965810;28;20619;-68
2023/02/25 03:16:09;;;;;;;11.63;5.93;;;2.40;1.00;;;4.70;100.00;94497.00;4967934;28;20213;-68
2023/02/25 03:18:43;;;;;;;10.63;5.33;;;2.40;1.00;;;4.80;100.00;94502.38;4966128;28;20210;-67
2023/02/25 03:21:15;;;;;;;14.63;6.53;;;2.40;1.00;;;4.69;100.00;94497.25;4969317;28;20206;-67
2023/02/25 03:23:46;;;;;;;10.30;5.57;;;2.40;1.00;;;4.55;100.00;94504.75;4963860;28;20241;-68
2023/02/25 03:26:22;;;;;;;9.90;6.13;;;2.40;1.00;;;4.87;100.00;94502.19;4969494;28;20304;-68
2023/02/25 03:28:48;;;;;;;13.80;6.50;;;2.30;1.00;;;4.93;100.00;94504.59;4961680;28;20219;-68
2023/02/25 03:31:21;;;;;;;10.83;5.50;;;2.40;1.00;;;4.81;100.00;94509.25;4969572;28;20282;-67
2023/02/25 03:33:55;;;;;;;15.13;6.77;;;2.40;1.00;;;4.28;100.00;94506.59;4966245;28;20208;-67
2023/02/25 03:36:27;;;;;;;12.70;6.43;;;2.40;1.00;;;4.03;100.00;94505.50;4972769;28;20208;-68
2023/02/25 03:38:59;;;;;;;10.27;6.10;;;2.30;1.00;;;3.92;100.00;94501.91;4969605;28;20213;-65
2023/02/25 03:41:34;;;;;;;12.77;6.40;;;2.30;1.00;;;3.94;100.00;94506.94;4970120;28;20264;-67
2023/02/25 03:44:05;;;;;;;13.13;6.30;;;2.30;1.00;;;3.84;100.00;94512.09;4964159;28;20762;-67
2023/02/25 03:46:34;;;;;;;8.60;5.73;;;2.30;1.00;;;3.84;100.00;94512.09;4969532;28;20633;-67
2023/02/25 03:49:04;;;;;;;11.17;5.63;;;2.30;1.00;;;3.84;100.00;94506.81;4962839;28;20279;-67
2023/02/25 03:51:35;;;;;;;12.33;5.80;;;2.20;1.00;;;3.88;100.00;94507.94;4966584;28;20228;-67
2023/02/25 03:54:02;;;;;;;8.90;5.43;;;2.20;1.00;;;3.70;100.00;94511.66;4962008;28;20222;-65
2023/02/25 03:56:29;;;;;;;10.57;5.83;;;2.20;1.00;;;3.79;100.00;94509.41;4970541;28;20200;-67
2023/02/25 03:58:56;;;;;;;14.40;5.57;;;2.20;1.00;;;3.73;100.00;94511.19;4969159;28;20213;-67
2023/02/25 04:01:30;;;;;;;9.43;5.23;;;2.10;1.00;;;3.71;100.00;94517.75;4971079;28;20245;-67
2023/02/25 04:03:56;;;;;;;12.80;5.00;;;2.10;1.00;;;3.61;100.00;94518.38;4967950;28;20230;-67
2023/02/25 04:06:25;;;;;;;13.53;5.40;;;2.10;1.00;;;3.63;100.00;94521.59;4969564;28;20970;-67
2023/02/25 04:08:52;;;;;;;9.73;4.33;;;2.00;1.00;;;3.78;100.00;94518.34;4962649;28;20205;-67
2023/02/25 04:11:19;;;;;;;7.50;3.57;;;2.00;1.00;;;3.60;100.00;94527.34;4968166;28;20236;-67
2023/02/25 04:13:46;;;;;;;8.97;3.57;;;2.00;1.00;;;3.70;100.00;94539.84;4964876;28;20642;-67
2023/02/25 04:16:13;;;;;;;7.53;3.67;;;2.00;1.00;;;3.61;100.00;94547.38;4966415;28;20216;-67
2023/02/25 04:18:40;;;;;;;10.10;3.80;;;2.00;1.00;;;3.65;100.00;94556.41;4969984;28;20212;-67
2023/02/25 04:21:08;;;;;;;5.50;3.10;;;2.00;1.00;;;3.73;100.00;94552.56;4969045;28;20268;-67
2023/02/25 04:23:36;;;;;;;5.03;2.53;;;1.90;1.00;;;4.82;100.00;94555.72;4966752;28;20342;-67
2023/02/25 04:26:04;;;;;;;7.77;2.97;;;2.00;1.00;;;4.18;100.00;94553.97;4969787;28;20655;-67
2023/02/25 04:28:30;;;;;;;6.33;2.70;;;1.90;1.00;;;4.21;100.00;94560.59;4969383;28;20209;-67
2023/02/25 04:30:57;;;;;;;5.40;2.23;;;1.90;1.00;;;4.24;100.00;94550.34;4964149;28;20289;-67
2023/02/25 04:33:24;;;;;;;7.77;2.27;;;1.90;1.00;;;4.23;100.00;94553.22;4964446;28;20271;-67
2023/02/25 04:35:51;;;;;;;5.50;2.20;;;1.90;1.00;;;4.22;100.00;94554.28;4960348;28;20572;-67
2023/02/25 04:38:18;;;;;;;4.97;2.07;;;1.80;1.00;;;4.13;100.00;94559.19;4961570;28;20490;-67
2023/02/25 04:40:46;;;;;;;5.77;2.30;;;1.80;1.00;;;4.11;100.00;94550.69;4964694;28;20213;-67
2023/02/25 04:43:13;;;;;;;6.90;2.00;;;1.70;1.00;;;4.06;100.00;94555.13;4967402;28;20217;-67
2023/02/25 04:45:39;;;;;;;4.00;1.70;;;1.70;1.00;;;4.26;100.00;94556.16;4965162;28;20216;-67
2023/02/25 04:48:06;;;;;;;4.83;2.20;;;1.70;1.00;;;4.39;100.00;94562.91;4965419;28;20615;-67
2023/02/25 04:50:33;;;;;;;4.23;1.30;;;1.70;1.00;;;4.05;100.00;94561.41;4965785;28;20220;-67
2023/02/25 04:53:01;;;;;;;4.80;1.43;;;1.60;1.00;;;4.24;100.00;94571.44;4966204;28;20221;-67
2023/02/25 04:55:29;;;;;;;5.63;1.80;;;1.60;1.00;;;3.98;100.00;94572.16;4964822;28;20575;-67
2023/02/25 04:57:57;;;;;;;4.00;1.53;;;1.50;1.00;;;4.17;100.00;94568.19;4969815;28;20214;-67
2023/02/25 05:00:26;;;;;;;6.23;1.23;;;1.50;1.00;;;4.21;100.00;94565.88;4964389;28;20648;-67
2023/02/25 05:02:53;;;;;;;2.73;1.27;;;1.50;1.00;;;4.13;100.00;94571.56;4965959;28;20228;-67
2023/02/25 05:05:20;;;;;;;2.73;1.10;;;1.40;1.00;;;4.04;100.00;94584.38;4964054;28;20264;-67
2023/02/25 05:07:47;;;;;;;2.67;1.33;;;1.40;1.00;;;3.97;100.00;94577.69;4961186;28;20268;-67
2023/02/25 05:10:14;;;;;;;4.57;1.40;;;1.40;1.00;;;4.22;100.00;94578.78;4962994;28;20253;-67
2023/02/25 05:12:41;;;;;;;3.93;1.40;;;1.40;1.00;;;4.18;100.00;94577.72;4962787;28;20236;-67
2023/02/25 05:15:11;;;;;;;2.53;1.20;;;1.40;1.00;;;4.15;100.00;94572.91;4963158;28;20222;-67
2023/02/25 05:17:38;;;;;;;5.30;1.30;;;1.40;1.00;;;4.04;100.00;94570.38;4965399;28;20256;-68
2023/02/25 05:20:11;;;;;;;4.77;1.10;;;1.30;1.00;;;3.98;100.00;94577.44;4963715;28;20225;-67
2023/02/25 05:22:38;;;;;;;3.90;1.30;;;1.30;1.00;;;3.91;100.00;94571.53;4970709;28;20756;-67
2023/02/25 05:25:06;;;;;;;5.73;1.17;;;1.30;1.00;;;3.99;100.00;94573.75;4965704;28;20220;-67
2023/02/25 05:27:34;;;;;;;3.50;1.17;;;1.20;1.00;;;3.94;100.00;94578.97;4962656;28;20240;-67
2023/02/25 05:30:00;;;;;;;1.90;0.90;;;1.20;1.00;;;4.03;100.00;94569.59;4966568;28;20217;-67
2023/02/25 05:32:31;;;;;;;4.03;0.83;;;1.20;1.00;;;3.25;100.00;94563.69;4961441;28;20727;-67
2023/02/25 05:34:57;;;;;;;5.17;1.10;;;1.30;1.00;;;3.15;100.00;94565.38;4962349;28;20966;-67
2023/02/25 05:37:24;;;;;;;3.10;0.90;;;1.30;1.00;;;3.25;100.00;94565.53;4962479;28;20718;-67
2023/02/25 05:39:51;;;;;;;4.53;1.10;;;1.30;1.00;;;3.12;100.00;94566.66;4966283;28;20212;-67
2023/02/25 05:42:18;;;;;;;4.00;1.03;;;1.20;1.00;;;3.10;100.00;94557.41;4968556;28;20209;-67
2023/02/25 05:44:45;;;;;;;4.03;1.20;;;1.20;1.00;;;3.06;100.00;94562.31;4958039;28;20748;-66
2023/02/25 05:47:13;;;;;;;2.40;0.93;;;1.20;1.00;;;3.02;100.00;94566.50;4959419;28;20209;-67
2023/02/25 05:49:42;;;;;;;3.87;1.43;;;1.20;1.00;;;3.03;100.00;94564.63;4961670;28;20232;-67
2023/02/25 05:52:09;;;;;;;3.13;1.20;;;1.10;1.00;;;3.10;100.00;94562.66;4961750;28;20234;-67
2023/02/25 05:54:36;;;;;;;4.70;1.50;;;1.20;1.00;;;3.05;100.00;94571.25;4966142;28;20267;-67
2023/02/25 05:57:03;;;;;;;5.90;1.37;;;1.10;1.00;;;3.02;100.00;94576.22;4968248;28;20617;-67
2023/02/25 05:59:30;;;;;;;2.90;1.20;;;1.10;1.00;;;3.03;100.00;94572.53;4960658;28;20634;-67
2023/02/25 06:01:57;;;;;;;5.43;1.03;;;1.10;1.00;;;3.06;100.00;94561.53;4961643;28;20213;-67
2023/02/25 06:04:23;;;;;;;3.87;1.40;;;1.10;1.00;;;2.99;100.00;94559.06;4963165;28;20216;-67
2023/02/25 06:06:52;;;;;;;2.47;1.07;;;1.10;1.00;;;3.06;100.00;94556.28;4967664;28;20217;-67
2023/02/25 06:09:20;;;;;;;3.73;1.10;;;1.10;1.00;;;3.08;100.00;94556.81;4963888;28;20332;-68
2023/02/25 06:11:48;;;;;;;4.73;1.40;;;1.10;1.00;;;3.05;100.00;94559.94;4958373;28;20252;-67
2023/02/25 06:14:16;;;;;;;7.03;1.50;;;1.10;1.00;;;3.14;100.00;94564.56;4963786;28;20205;-67
2023/02/25 06:16:43;;;;;;;4.50;1.60;;;1.20;1.00;;;3.01;100.00;94574.63;4959706;28;20207;-67
2023/02/25 06:19:12;;;;;;;2.87;0.93;;;1.10;1.00;;;3.01;100.00;94580.66;4962703;28;20223;-67
2023/02/25 06:21:39;;;;;;;5.20;1.27;;;1.10;1.00;;;3.11;100.00;94590.59;4961842;28;20620;-68
2023/02/25 06:24:08;;;;;;;7.17;1.60;;;1.20;1.00;;;3.12;100.00;94586.91;4968150;28;20287;-67
2023/02/25 06:26:40;;;;;;;3.87;1.17;;;1.20;1.00;;;3.10;100.00;94592.41;4960043;28;20263;-67
2023/02/25 06:29:08;;;;;;;3.57;1.37;;;1.20;1.00;;;3.15;100.00;94597.78;4958601;28;20578;-67
2023/02/25 06:31:35;;;;;;;3.73;1.53;;;1.20;1.00;;;2.95;100.00;94612.44;4966424;28;20273;-68
2023/02/25 06:34:01;;;;;;;4.73;1.30;;;1.20;1.00;;;3.08;100.00;94618.22;4963258;28;20224;-67
2023/02/25 06:36:28;;;;;;;4.47;1.17;;;1.20;1.00;;;3.12;100.00;94626.44;4959668;28;20300;-67
2023/02/25 06:38:55;;;;;;;1.90;1.07;;;1.20;1.00;;;2.99;100.00;94630.16;4963050;28;20213;-69
2023/02/25 06:41:23;;;;;;;3.10;1.20;;;1.20;1.00;;;3.02;100.00;94623.63;4964684;28;20213;-67
2023/02/25 06:43:51;;;;;;;3.83;1.33;;;1.20;1.00;;;3.14;100.00;94626.97;4967901;28;20256;-67
2023/02/25 06:46:20;;;;;;;3.33;1.13;;;1.20;1.00;;;3.21;100.00;94614.47;4956940;28;20206;-67
2023/02/25 06:48:47;;;;;;;2.23;1.17;;;1.20;1.00;;;3.22;100.00;94626.59;4964096;28;20209;-67
2023/02/25 06:51:14;;;;;;;4.27;1.30;;;1.20;1.00;;;3.16;100.00;94623.06;4961242;28;20216;-67
2023/02/25 06:53:44;;;;;;;4.93;1.80;;;1.20;1.00;;;3.04;100.00;94624.97;4961531;28;20280;-67
2023/02/25 06:56:14;;;;;;;6.20;2.90;;;1.20;1.00;;;3.20;100.00;94629.47;4966427;28;20277;-67
2023/02/25 06:58:42;;;;;;;1.90;1.20;;;1.30;1.00;;;3.27;100.00;94631.94;4957418;28;20268;-67
2023/02/25 07:01:11;;;;;;;5.30;1.23;;;1.30;1.00;;;3.15;100.00;94626.75;4967276;28;20249;-67
2023/02/25 07:03:38;;;;;;;4.20;1.33;;;1.30;1.00;;;3.16;100.00;94625.69;4966844;28;20208;-67
2023/02/25 07:06:06;;;;;;;4.00;1.10;;;1.30;1.00;;;3.23;100.00;94634.28;4965363;28;20234;-67
2023/02/25 07:08:33;;;;;;;3.10;1.23;;;1.30;1.00;;;3.47;100.00;94625.19;4960537;28;20215;-67
2023/02/25 07:11:15;;;;;;;3.17;1.40;;;1.40;1.00;;;3.45;100.00;94631.75;4960416;28;20822;-67
2023/02/25 07:13:44;;;;;;;3.63;0.93;;;1.40;1.00;;;3.40;100.00;94648.25;4959475;28;20217;-65
2023/02/25 07:16:11;;;;;;;2.97;1.30;;;1.50;1.00;;;3.42;100.00;94635.66;4965383;28;20217;-65
2023/02/25 07:18:38;;;;;;;4.67;1.33;;;1.50;1.00;;;3.52;100.00;94646.38;4961297;28;20215;-67
2023/02/25 07:21:05;;;;;;;1.37;0.80;;;1.60;1.00;;;3.57;100.00;94641.19;4969479;28;20217;-67
2023/02/25 07:23:32;;;;;;;3.57;1.27;;;1.60;1.00;;;3.49;100.00;94641.56;4959425;28;20644;-67
2023/02/25 07:26:03;;;;;;;5.20;1.20;;;1.60;1.00;;;3.52;100.00;94649.00;4972144;28;20599;-67
2023/02/25 07:28:30;;;;;;;2.13;1.03;;;1.60;1.00;;;3.44;100.00;94641.47;4966783;28;20220;-67
2023/02/25 07:31:00;;;;;;;2.90;0.77;;;1.60;1.00;;;3.59;100.00;94649.63;4967871;28;20217;-67
2023/02/25 07:33:28;;;;;;;3.17;1.00;;;1.60;1.00;;;3.50;100.00;94653.69;4967821;28;20740;-67
2023/02/25 07:35:55;;;;;;;3.73;1.10;;;1.70;1.00;;;3.69;100.00;94651.63;4967094;28;20284;-67
2023/02/25 07:38:22;;;;;;;2.30;1.00;;;1.70;1.00;;;3.59;100.00;94649.63;4967105;28;20218;-67
2023/02/25 07:40:50;;;;;;;2.57;0.97;;;1.60;1.00;;;3.70;100.00;94651.38;4963277;28;20214;-67
2023/02/25 07:43:17;;;;;;;6.00;1.30;;;1.70;1.00;;;3.76;100.00;94637.22;4968682;28;20215;-67
2023/02/25 07:45:43;;;;;;;4.93;1.33;;;1.70;1.00;;;3.94;100.00;94637.00;4970788;28;20213;-67
2023/02/25 07:48:12;;;;;;;2.73;1.10;;;1.80;1.00;;;3.84;100.00;94639.47;4968184;28;20221;-67
2023/02/25 07:50:38;;;;;;;4.30;1.50;;;1.80;1.00;;;3.93;100.00;94627.50;4965550;28;20279;-67
2023/02/25 07:53:05;;;;;;;3.87;1.40;;;1.90;1.00;;;4.00;100.00;94627.28;4962801;28;20289;-67
2023/02/25 07:55:32;;;;;;;5.70;1.47;;;1.90;1.00;;;4.11;100.00;94631.69;4966521;28;20266;-67
2023/02/25 07:58:00;;;;;;;4.37;1.47;;;2.00;1.00;;;3.79;100.00;94623.56;4960963;28;20235;-67
2023/02/25 08:00:27;;;;;;;2.27;1.10;;;2.00;1.00;;;3.79;100.00;94623.56;4965871;28;20945;-66
2023/02/25 08:02:54;;;;;;;6.93;1.30;;;1.90;1.00;;;4.05;100.00;94628.19;4966429;28;20220;-67
2023/02/25 08:05:23;;;;;;;4.60;1.20;;;2.10;1.00;;;4.10;100.00;94633.53;4967513;28;20208;-67
2023/02/25 08:07:49;;;;;;;3.10;1.30;;;2.10;1.00;;;4.21;100.00;94645.03;4964726;28;20211;-66
2023/02/25 08:10:17;;;;;;;4.37;1.33;;;2.10;1.00;;;3.80;100.00;94645.44;4965776;28;20281;-67
2023/02/25 08:12:44;;;;;;;3.97;1.30;;;2.00;1.00;;;3.73;100.00;94634.28;4966487;28;20227;-66
2023/02/25 08:15:11;;;;;;;5.03;1.37;;;1.90;1.00;;;3.53;100.00;94647.97;4964443;28;20212;-66
2023/02/25 08:17:38;;;;;;;4.37;1.60;;;1.80;1.00;;;3.62;100.00;94645.72;4968511;28;20201;-66
2023/02/25 08:20:07;;;;;;;4.13;1.80;;;1.70;1.00;;;3.58;100.00;94642.75;4968472;28;20653;-66
2023/02/25 08:22:35;;;;;;;4.33;1.40;;;1.60;1.00;;;3.42;100.00;94624.31;4963327;28;20306;-66
2023/02/25 08:25:02;;;;;;;4.20;1.87;;;1.60;1.00;;;3.52;100.00;94632.38;4965668;28;20710;-66
2023/02/25 08:27:29;;;;;;;4.00;1.73;;;1.60;1.00;;;3.72;100.00;94636.09;4962468;28;21213;-66
2023/02/25 08:29:57;;;;;;;6.13;1.83;;;1.70;1.00;;;3.70;100.00;94650.56;4964988;28;20209;-66
2023/02/25 08:32:26;;;;;;;6.07;1.97;;;1.80;1.00;;;3.91;100.00;94636.69;4964680;28;20229;-66
2023/02/25 08:34:53;;;;;;;3.53;1.53;;;1.90;1.00;;;3.91;100.00;94648.00;4968740;28;20214;-66
2023/02/25 08:37:20;;;;;;;3.83;1.60;;;1.90;1.00;;;3.87;100.00;94646.88;4961317;28;20221;-66
2023/02/25 08:39:48;;;;;;;2.70;1.50;;;1.90;1.00;;;4.13;100.00;94640.16;4964172;28;20211;-66
2023/02/25 08:42:17;;;;;;;4.87;2.00;;;2.00;1.00;;;3.92;100.00;94646.97;4963496;28;20218;-68
2023/02/25 08:44:45;;;;;;;7.80;2.10;;;2.00;1.00;;;4.21;100.00;94645.81;4965948;28;20585;-68
2023/02/25 08:47:12;;;;;;;6.63;1.93;;;2.00;1.00;;;4.18;100.00;94648.13;4963597;28;20638;-68
2023/02/25 08:49:39;;;;;;;9.50;4.73;;;2.10;1.00;;;4.34;100.00;94645.47;4967128;28;20209;-69
2023/02/25 08:52:05;;;;;;;4.17;1.90;;;2.20;1.00;;;4.41;100.00;94640.00;4965880;28;20265;-68
2023/02/25 08:54:32;;;;;;;5.17;1.53;;;2.20;1.00;;;4.44;100.00;94642.97;4963492;28;20649;-68
2023/02/25 08:57:01;;;;;;;3.33;1.53;;;2.30;1.00;;;4.53;100.00;94648.59;4962009;28;20219;-68
2023/02/25 08:59:34;;;;;;;4.03;1.63;;;2.40;1.00;;;4.67;100.00;94647.22;4964085;28;20567;-68
2023/02/25 09:02:01;;;;;;;4.20;1.43;;;2.50;1.00;;;4.61;100.00;94654.25;4963025;28;20837;-68
2023/02/25 09:04:28;;;;;;;5.57;1.50;;;2.50;1.00;;;4.08;100.00;94648.81;4964377;28;20218;-68
2023/02/25 09:06:57;;;;;;;4.97;1.67;;;2.40;1.00;;;4.45;100.00;94641.91;4967040;28;20225;-68
2023/02/25 09:09:25;;;;;;;3.73;1.27;;;2.40;1.00;;;4.23;100.00;94648.22;4962588;28;20234;-68
2023/02/25 09:11:52;;;;;;;2.90;1.53;;;2.40;1.00;;;4.43;100.00;94645.84;4961223;28;20654;-68
2023/02/25 09:14:21;;;;;;;4.70;1.63;;;2.40;1.00;;;4.46;100.00;94664.63;4963428;28;20215;-68
2023/02/25 09:16:48;;;;;;;5.77;1.30;;;2.50;1.00;;;4.35;100.00;94654.97;4964315;28;20881;-68
2023/02/25 09:19:17;;;;;;;4.00;1.10;;;2.50;1.00;;;4.46;100.00;94642.69;4965039;28;20209;-68
2023/02/25 09:21:46;;;;;;;2.27;1.40;;;2.60;1.00;;;4.77;100.00;94645.47;4964973;28;20323;-69
2023/02/25 09:24:14;;;;;;;3.77;1.20;;;2.70;1.00;;;4.78;100.00;94654.97;4960776;28;20217;-68
2023/02/25 09:26:41;;;;;;;2.77;1.17;;;2.90;1.00;;;4.84;100.00;94661.94;4962739;28;20608;-68
2023/02/25 09:29:08;;;;;;;4.57;1.10;;;2.90;1.00;;;4.69;100.00;94659.13;4965263;28;20977;-68
2023/02/25 09:31:38;;;;;;;4.23;1.37;;;2.90;1.00;;;4.77;100.00;94637.53;4963686;28;20565;-68
2023/02/25 09:34:09;;;;;;;8.20;1.20;;;2.90;1.00;;;5.09;100.00;94637.63;4963693;28;20797;-68
2023/02/25 09:36:36;;;;;;;3.90;0.90;;;3.00;1.00;;;5.16;100.00;94640.88;4961805;28;20278;-69
2023/02/25 09:39:08;;;;;;;5.77;1.10;;;3.20;1.00;;;4.94;100.00;94643.56;4966194;28;20216;-68
2023/02/25 09:41:42;;;;;;;5.70;1.47;;;3.10;1.00;;;4.68;100.00;94643.50;4969763;28;20210;-68
2023/02/25 09:44:15;;;;;;;1.83;0.90;;;2.90;1.00;;;4.92;100.00;94627.16;4961662;28;20642;-68
2023/02/25 09:46:51;;;;;;;5.83;1.33;;;3.00;1.00;;;5.02;100.00;94643.09;4965154;28;20633;-68
2023/02/25 09:49:25;;;;;;;2.90;1.30;;;3.00;1.00;;;5.09;100.00;94646.38;4966491;28;20265;-69
2023/02/25 09:51:59;;;;;;;5.27;1.10;;;3.20;1.00;;;5.34;100.00;94641.31;4966696;28;20212;-68
2023/02/25 09:54:33;;;;;;;2.53;1.27;;;3.30;1.00;;;5.49;100.00;94633.50;4961005;28;20253;-68
2023/02/25 09:57:03;;;;;;;2.00;1.10;;;3.40;1.00;;;5.55;100.00;94627.25;4968468;28;20220;-69
2023/02/25 09:59:30;;;;;;;5.37;1.20;;;3.50;1.00;;;5.68;100.00;94639.25;4959091;28;20226;-69
2023/02/25 10:02:13;;;;;;;3.30;1.07;;;3.50;1.00;;;5.67;100.00;94622.56;4961956;28;20207;-73
2023/02/25 10:04:47;;;;;;;4.07;1.10;;;3.50;1.00;;;5.52;100.00;94630.38;4959236;28;20214;-69
2023/02/25 10:07:22;;;;;;;4.87;1.20;;;3.40;1.00;;;5.60;100.00;94640.50;4965446;28;20260;-69
2023/02/25 10:09:56;;;;;;;5.50;1.77;;;3.40;1.00;;;5.54;100.00;94630.13;4963372;28;20715;-69
2023/02/25 10:12:35;;;;;;;4.23;1.03;;;3.40;1.00;;;5.29;100.00;94630.69;4961480;28;20219;-68
2023/02/25 10:15:29;;;;;;;3.77;1.20;;;3.30;1.00;;;5.35;100.00;94628.91;4963998;28;20223;-70
2023/02/25 10:18:19;;;;;;;5.07;1.23;;;3.30;1.00;;;4.96;100.00;94630.09;4962393;28;20203;-69
2023/02/25 10:21:02;;;;;;;6.70;1.40;;;3.10;1.00;;;4.66;100.00;94624.47;4962633;28;20254;-68
2023/02/25 10:23:47;;;;;;;2.77;1.10;;;2.90;1.00;;;4.66;100.00;94635.03;4964772;28;20214;-67
2023/02/25 10:26:20;;;;;;;6.73;1.23;;;2.90;1.00;;;4.81;100.00;94636.00;4968474;28;20209;-67
2023/02/25 10:28:51;;;;;;;4.10;1.87;;;2.90;1.00;;;4.93;100.00;94628.75;4960797;28;20218;-67
2023/02/25 10:31:21;;;;;;;3.33;1.10;;;2.90;1.00;;;4.88;100.00;94635.81;4961826;28;20210;-67
2023/02/25 10:33:52;;;;;;;4.47;1.30;;;2.90;1.00;;;4.74;100.00;94624.84;4962289;28;20231;-67
2023/02/25 10:36:27;;;;;;;2.43;1.13;;;2.90;1.00;;;4.90;100.00;94628.44;4960123;28;20217;-67
2023/02/25 10:38:55;;;;;;;6.07;1.47;;;2.90;1.00;;;4.91;100.00;94633.47;4958071;28;20216;-67
2023/02/25 10:41:25;;;;;;;2.57;0.83;;;3.00;1.00;;;5.20;100.00;94623.47;4962569;28;20799;-68